Time;durP1;ratioP1;P1;durP2;ratioP2;P2;SDS_P1;SDS_P2;PMS_P1;PMS_P2;Temp;Humidity;BMP_temperature;BMP_pressure;BME280_temperature;BME280_humidity;BME280_pressure;Samples;Min_cycle;Max_cycle;Signal;HPM_P1;HPM_P2
2021/12/04 00:01:09;;;;;;;8.55;2.67;;;8.90;79.30;;;;;;4997663;28;20112;-80
2021/12/04 00:03:39;;;;;;;6.28;2.80;;;8.90;79.40;;;;;;4997996;28;20030;-80
2021/12/04 00:06:13;;;;;;;4.30;2.58;;;8.90;79.40;;;;;;4997416;28;20065;-79
2021/12/04 00:08:43;;;;;;;6.57;2.97;;;9.00;79.50;;;;;;4996312;28;20084;-79
2021/12/04 00:11:09;;;;;;;6.07;2.70;;;8.90;79.40;;;;;;4997214;28;20505;-80
2021/12/04 00:13:34;;;;;;;4.15;2.70;;;8.90;79.40;;;;;;4997404;28;20057;-80
2021/12/04 00:16:00;;;;;;;5.82;2.63;;;8.90;79.50;;;;;;4997281;28;20022;-80
2021/12/04 00:18:25;;;;;;;8.55;2.88;;;8.90;79.50;;;;;;4997329;28;20481;-80
2021/12/04 00:20:51;;;;;;;10.05;2.80;;;8.90;79.50;;;;;;4997115;28;20025;-80
2021/12/04 00:23:17;;;;;;;5.57;2.78;;;8.90;79.50;;;;;;4997217;28;20033;-80
2021/12/04 00:25:42;;;;;;;7.75;3.08;;;8.90;79.60;;;;;;4997210;28;20069;-79
2021/12/04 00:28:08;;;;;;;5.60;2.53;;;8.90;79.60;;;;;;4997106;28;20036;-80
2021/12/04 00:30:34;;;;;;;6.85;2.95;;;9.00;79.70;;;;;;4996794;28;20018;-80
2021/12/04 00:33:03;;;;;;;5.05;2.80;;;8.90;79.60;;;;;;4996722;28;20036;-80
2021/12/04 00:49:06;;;;;;;5.65;2.90;;;9.00;79.90;;;;;;5014488;28;20500;-80
2021/12/04 00:49:12;;;;;;;5.15;2.40;;;9.00;80.00;;;;;;5014384;28;20079;-80
2021/12/04 00:51:49;;;;;;;4.25;2.60;;;9.00;80.00;;;;;;4996699;28;20037;-80
2021/12/04 00:54:15;;;;;;;5.72;2.55;;;9.00;80.10;;;;;;5014037;28;20110;-80
2021/12/04 00:56:42;;;;;;;4.78;2.70;;;9.00;80.10;;;;;;4996500;28;20053;-79
2021/12/04 00:59:08;;;;;;;3.83;2.28;;;9.00;80.20;;;;;;4996191;28;20026;-79
2021/12/04 01:01:38;;;;;;;4.68;2.70;;;9.00;80.20;;;;;;4996505;28;20061;-79
2021/12/04 01:04:07;;;;;;;3.95;2.55;;;9.00;80.30;;;;;;4996449;28;20030;-80
2021/12/04 01:06:32;;;;;;;4.32;2.50;;;9.00;80.30;;;;;;4996688;28;20033;-79
2021/12/04 01:08:58;;;;;;;4.85;2.42;;;9.00;80.30;;;;;;4996135;28;20030;-80
2021/12/04 01:11:23;;;;;;;5.15;2.60;;;9.00;80.40;;;;;;4996280;28;20030;-79
2021/12/04 01:13:49;;;;;;;4.85;2.60;;;9.00;80.40;;;;;;4996123;28;20025;-80
2021/12/04 01:16:14;;;;;;;3.78;2.38;;;9.00;80.50;;;;;;4996247;28;20022;-80
2021/12/04 01:18:40;;;;;;;4.45;2.50;;;9.00;80.60;;;;;;4995754;28;20028;-79
2021/12/04 01:21:06;;;;;;;4.72;2.78;;;9.00;80.60;;;;;;5013665;28;20629;-78
2021/12/04 01:23:31;;;;;;;5.43;2.60;;;9.00;80.60;;;;;;4995897;28;20401;-80
2021/12/04 01:25:57;;;;;;;4.78;2.40;;;9.00;80.70;;;;;;4995915;28;20068;-80
2021/12/04 01:28:23;;;;;;;3.78;2.40;;;9.00;80.70;;;;;;4995913;28;20073;-80
2021/12/04 01:30:48;;;;;;;4.18;2.55;;;9.00;80.70;;;;;;5013132;28;20053;-79
2021/12/04 01:33:14;;;;;;;4.28;2.60;;;9.00;80.80;;;;;;4995731;28;20032;-79
2021/12/04 01:35:39;;;;;;;4.15;2.50;;;9.00;80.80;;;;;;4995814;28;20025;-79
2021/12/04 01:38:05;;;;;;;4.85;2.75;;;9.00;80.80;;;;;;4995721;28;20079;-80
2021/12/04 01:40:30;;;;;;;4.63;2.70;;;9.00;80.80;;;;;;4995581;28;20026;-78
2021/12/04 01:42:56;;;;;;;4.40;2.80;;;9.00;80.70;;;;;;4995817;28;20040;-79
2021/12/04 01:45:22;;;;;;;4.05;2.45;;;9.00;80.80;;;;;;4995611;28;20026;-79
2021/12/04 01:47:47;;;;;;;4.65;2.63;;;9.00;80.80;;;;;;4995605;28;20050;-80
2021/12/04 01:50:13;;;;;;;4.85;2.80;;;9.00;80.80;;;;;;4995445;28;20401;-80
2021/12/04 01:52:39;;;;;;;6.93;2.97;;;9.00;80.80;;;;;;4995567;28;20120;-79
2021/12/04 01:55:05;;;;;;;5.93;2.78;;;9.00;80.80;;;;;;5013023;28;20065;-80
2021/12/04 01:57:31;;;;;;;6.00;2.53;;;9.00;80.90;;;;;;5012818;28;20018;-79
2021/12/04 01:59:57;;;;;;;5.30;2.58;;;9.00;80.90;;;;;;4995300;28;20032;-79
2021/12/04 02:02:22;;;;;;;4.07;2.35;;;9.00;80.90;;;;;;5012964;28;20101;-79
2021/12/04 02:04:48;;;;;;;4.60;2.70;;;9.00;80.90;;;;;;4995246;28;20033;-81
2021/12/04 02:07:15;;;;;;;5.18;2.58;;;9.00;80.90;;;;;;5012746;28;20518;-79
2021/12/04 02:09:41;;;;;;;4.13;2.65;;;9.00;80.90;;;;;;4995179;28;20128;-79
2021/12/04 02:12:08;;;;;;;4.10;2.60;;;9.00;80.90;;;;;;4995153;28;20121;-80
2021/12/04 02:14:35;;;;;;;3.85;2.60;;;9.00;80.90;;;;;;4995209;28;20018;-80
2021/12/04 02:17:02;;;;;;;3.95;2.50;;;9.00;81.00;;;;;;5012911;28;20057;-80
2021/12/04 02:19:28;;;;;;;5.32;2.78;;;9.00;80.90;;;;;;4995032;28;20026;-79
2021/12/04 02:21:54;;;;;;;4.80;2.80;;;9.00;81.00;;;;;;4995190;28;20117;-80
2021/12/04 02:24:19;;;;;;;5.07;3.15;;;9.00;81.00;;;;;;5012653;28;20057;-80
2021/12/04 02:26:49;;;;;;;4.25;2.72;;;9.00;81.00;;;;;;4995051;28;20018;-79
2021/12/04 02:29:16;;;;;;;6.68;3.10;;;9.00;81.00;;;;;;4994865;28;20030;-79
2021/12/04 02:31:55;;;;;;;5.03;2.85;;;9.00;81.00;;;;;;4997481;28;20026;-79
2021/12/04 02:34:29;;;;;;;4.88;3.03;;;9.00;80.90;;;;;;4999103;28;20030;-79
2021/12/04 02:36:57;;;;;;;5.05;2.95;;;9.00;81.00;;;;;;4999137;28;20109;-79
2021/12/04 02:39:30;;;;;;;6.13;2.90;;;9.00;81.00;;;;;;5016331;28;20025;-80
2021/12/04 02:41:57;;;;;;;4.88;2.95;;;9.00;81.00;;;;;;4999415;28;20022;-79
2021/12/04 02:44:32;;;;;;;4.50;3.00;;;9.00;81.00;;;;;;5016502;28;20029;-79
2021/12/04 02:46:58;;;;;;;5.45;3.15;;;9.00;81.10;;;;;;4999071;28;20022;-79
2021/12/04 02:49:23;;;;;;;4.93;3.08;;;9.00;81.60;;;;;;4998744;28;20116;-79
2021/12/04 02:51:49;;;;;;;6.05;3.50;;;9.00;81.10;;;;;;4998893;28;20026;-79
2021/12/04 02:54:14;;;;;;;4.68;3.20;;;9.00;81.10;;;;;;5016320;28;20428;-80
2021/12/04 02:56:44;;;;;;;4.60;3.00;;;9.00;81.10;;;;;;4998690;28;20061;-79
2021/12/04 02:59:10;;;;;;;4.90;3.40;;;9.00;81.20;;;;;;4998397;28;20084;-80
2021/12/04 03:01:38;;;;;;;5.80;3.40;;;9.00;81.20;;;;;;5016229;28;20057;-79
2021/12/04 03:04:12;;;;;;;5.05;3.22;;;9.00;81.20;;;;;;4998729;28;20030;-80
2021/12/04 03:06:45;;;;;;;4.68;3.10;;;9.00;81.20;;;;;;4998672;28;20033;-78
2021/12/04 03:09:11;;;;;;;5.18;3.38;;;9.00;81.20;;;;;;4998464;28;20030;-79
2021/12/04 03:11:37;;;;;;;5.68;3.40;;;9.00;81.30;;;;;;4998498;28;20033;-80
2021/12/04 03:14:04;;;;;;;5.13;3.25;;;9.00;81.30;;;;;;4998482;28;20025;-79
2021/12/04 03:16:29;;;;;;;4.68;2.80;;;9.00;81.40;;;;;;5016018;28;20049;-80
2021/12/04 03:18:55;;;;;;;5.47;3.50;;;9.00;81.40;;;;;;4998251;28;20064;-79
2021/12/04 03:21:22;;;;;;;5.47;3.30;;;9.00;81.30;;;;;;4998262;28;20029;-80
2021/12/04 03:26:42;;;;;;;5.50;3.40;;;9.00;81.40;;;;;;5003026;28;20096;-79
2021/12/04 03:29:12;;;;;;;5.32;3.20;;;9.00;81.40;;;;;;4998139;28;20026;-80
2021/12/04 03:42:20;;;;;;;6.45;3.63;;;9.00;81.60;;;;;;5038171;28;20056;-79
2021/12/04 03:44:46;;;;;;;5.05;3.55;;;9.00;81.70;;;;;;5036358;28;20646;-79
2021/12/04 03:47:11;;;;;;;5.45;3.38;;;9.00;81.70;;;;;;5036361;28;20030;-79
2021/12/04 03:49:38;;;;;;;5.43;3.40;;;9.00;81.70;;;;;;5037477;28;20100;-79
2021/12/04 03:52:05;;;;;;;5.75;3.65;;;9.00;81.70;;;;;;5036119;28;20407;-79
2021/12/04 03:54:30;;;;;;;5.57;3.40;;;9.00;81.80;;;;;;5037405;28;20060;-80
2021/12/04 03:57:05;;;;;;;6.40;3.75;;;9.00;81.80;;;;;;5037393;28;20025;-80
2021/12/04 03:59:32;;;;;;;5.20;3.55;;;9.00;81.80;;;;;;5035177;28;20062;-80
2021/12/04 04:01:58;;;;;;;5.43;3.65;;;9.00;81.90;;;;;;5035598;28;20034;-80
2021/12/04 04:04:23;;;;;;;5.85;3.38;;;9.00;81.80;;;;;;5035337;28;20061;-79
2021/12/04 04:06:49;;;;;;;6.40;3.72;;;9.00;81.80;;;;;;5037015;28;20032;-80
2021/12/04 04:09:14;;;;;;;5.07;3.35;;;9.00;81.90;;;;;;5036172;28;20033;-79
2021/12/04 04:11:41;;;;;;;5.20;3.22;;;9.00;81.90;;;;;;5036514;28;20401;-79
2021/12/04 04:14:06;;;;;;;5.15;3.30;;;9.00;81.80;;;;;;5034949;28;20048;-79
2021/12/04 04:16:35;;;;;;;6.13;3.63;;;9.00;81.90;;;;;;5034552;28;20477;-79
2021/12/04 04:19:01;;;;;;;5.53;3.60;;;9.00;81.90;;;;;;5034545;28;20031;-79
2021/12/04 04:21:26;;;;;;;5.97;3.70;;;9.00;81.90;;;;;;5034448;28;20536;-79
2021/12/04 04:23:52;;;;;;;5.30;3.42;;;9.00;81.90;;;;;;5035828;28;20507;-79
2021/12/04 04:26:17;;;;;;;5.70;3.83;;;9.00;82.00;;;;;;5034521;28;20065;-79
2021/12/04 04:28:43;;;;;;;6.05;4.00;;;9.00;82.00;;;;;;5034359;28;20512;-79
2021/12/04 04:31:09;;;;;;;5.55;3.53;;;9.00;82.00;;;;;;5035596;28;20492;-79
2021/12/04 04:33:39;;;;;;;5.30;3.53;;;9.00;82.00;;;;;;5034021;28;20029;-80
2021/12/04 04:39:15;;;;;;;5.65;3.83;;;9.00;82.10;;;;;;5035205;28;20410;-79
2021/12/04 05:11:13;;;;;;;5.70;3.70;;;9.00;82.60;;;;;;5035636;28;20028;-81
2021/12/04 05:13:39;;;;;;;5.65;3.65;;;9.00;82.60;;;;;;5037694;28;20029;-81
2021/12/04 05:16:13;;;;;;;5.32;3.53;;;9.00;82.60;;;;;;5037010;28;20028;-81
2021/12/04 05:18:44;;;;;;;5.60;3.60;;;9.00;82.70;;;;;;5035637;28;20064;-79
2021/12/04 05:21:12;;;;;;;5.25;3.42;;;9.00;82.70;;;;;;5037378;28;20503;-80
2021/12/04 05:23:50;;;;;;;5.70;3.80;;;9.00;82.70;;;;;;5035279;28;20033;-79
2021/12/04 05:26:19;;;;;;;5.82;3.92;;;9.00;82.80;;;;;;5035179;28;20044;-78
2021/12/04 05:28:45;;;;;;;6.40;3.85;;;9.00;82.80;;;;;;5035504;28;20021;-79
2021/12/04 05:31:11;;;;;;;6.18;4.10;;;9.00;82.80;;;;;;5033244;28;20025;-79
2021/12/04 05:33:39;;;;;;;6.38;3.70;;;9.00;82.90;;;;;;5037605;28;20472;-79
2021/12/04 05:36:05;;;;;;;5.50;3.58;;;9.00;82.90;;;;;;5054075;28;20028;-79
2021/12/04 05:38:31;;;;;;;5.53;3.65;;;9.00;82.90;;;;;;5054404;28;20538;-79
2021/12/04 05:40:57;;;;;;;5.75;3.40;;;9.00;83.00;;;;;;5054068;28;20025;-79
2021/12/04 05:43:23;;;;;;;6.35;3.85;;;9.00;83.00;;;;;;5053873;28;20539;-79
2021/12/04 05:46:03;;;;;;;7.93;4.03;;;9.00;83.00;;;;;;5053604;28;20021;-79
2021/12/04 05:53:55;;;;;;;5.80;3.70;;;9.00;83.00;;;;;;5055023;28;20025;-79
2021/12/04 05:56:21;;;;;;;5.55;3.63;;;9.00;83.10;;;;;;5044681;28;20477;-79
2021/12/04 05:58:48;;;;;;;7.38;4.03;;;9.00;83.10;;;;;;5032973;28;20028;-80
2021/12/04 06:01:15;;;;;;;6.97;4.03;;;9.00;83.20;;;;;;5032835;28;20025;-79
2021/12/04 06:03:41;;;;;;;6.05;3.83;;;9.00;83.20;;;;;;5034321;28;20021;-79
2021/12/04 06:06:07;;;;;;;5.57;3.72;;;9.00;83.20;;;;;;5033128;28;20032;-78
2021/12/04 06:08:32;;;;;;;5.93;3.97;;;9.00;83.20;;;;;;5031943;28;20025;-78
2021/12/04 06:10:58;;;;;;;6.32;3.60;;;9.00;83.30;;;;;;5033934;28;20030;-79
2021/12/04 06:13:24;;;;;;;5.82;3.83;;;9.00;83.30;;;;;;5033501;28;20022;-79
2021/12/04 06:15:51;;;;;;;7.47;4.80;;;9.00;83.30;;;;;;5032217;28;20056;-79
2021/12/04 06:18:17;;;;;;;8.95;5.82;;;9.00;83.40;;;;;;5032201;28;20038;-78
2021/12/04 06:23:28;;;;;;;11.07;9.00;;;9.00;83.40;;;;;;5033980;28;20033;-79
2021/12/04 06:25:54;;;;;;;11.90;9.30;;;9.00;83.50;;;;;;5033360;28;20115;-79
2021/12/04 06:28:20;;;;;;;12.13;9.15;;;9.00;83.50;;;;;;5033613;28;20381;-79
2021/12/04 06:30:46;;;;;;;11.50;9.38;;;9.00;83.50;;;;;;5034739;28;20056;-80
2021/12/04 06:33:15;;;;;;;11.77;8.90;;;9.00;83.60;;;;;;5033187;28;20053;-79
2021/12/04 06:35:41;;;;;;;11.00;8.45;;;9.00;83.60;;;;;;5032823;28;20119;-79
2021/12/04 06:38:12;;;;;;;11.25;8.77;;;9.00;83.60;;;;;;5033356;28;20021;-79
2021/12/04 06:40:39;;;;;;;11.93;9.40;;;9.00;83.60;;;;;;5032963;28;20401;-79
2021/12/04 06:43:05;;;;;;;12.10;9.25;;;9.00;83.70;;;;;;5033129;28;20403;-78
2021/12/04 06:45:33;;;;;;;12.07;9.38;;;9.00;83.70;;;;;;5032540;28;20034;-78
2021/12/04 06:48:04;;;;;;;12.18;9.10;;;9.00;83.70;;;;;;5028875;28;20037;-79
2021/12/04 06:50:50;;;;;;;13.70;9.27;;;9.00;83.70;;;;;;5027856;28;20414;-79
2021/12/04 06:56:02;;;;;;;12.95;9.27;;;9.00;83.80;;;;;;5010068;28;20543;-78
2021/12/04 06:58:29;;;;;;;13.02;9.20;;;9.00;83.80;;;;;;5008317;28;20409;-76
2021/12/04 07:00:55;;;;;;;15.00;10.35;;;9.00;83.80;;;;;;5008073;28;20022;-78
2021/12/04 07:03:21;;;;;;;13.65;9.98;;;9.00;83.90;;;;;;5009273;28;20034;-79
2021/12/04 07:05:47;;;;;;;11.40;9.45;;;9.00;83.90;;;;;;5009124;28;20112;-78
2021/12/04 07:08:14;;;;;;;13.23;9.65;;;9.00;83.90;;;;;;5008177;28;20108;-78
2021/12/04 07:10:40;;;;;;;12.40;9.65;;;9.00;83.90;;;;;;5009028;28;20030;-78
2021/12/04 07:13:06;;;;;;;12.35;9.38;;;9.00;83.90;;;;;;5009181;28;20105;-79
2021/12/04 07:15:33;;;;;;;12.77;10.10;;;9.00;84.00;;;;;;5024651;28;20061;-78
2021/12/04 07:18:00;;;;;;;11.43;9.15;;;9.00;84.00;;;;;;5010413;28;20029;-78
2021/12/04 07:20:26;;;;;;;12.88;9.23;;;9.00;84.00;;;;;;5010766;28;20592;-79
2021/12/04 07:22:52;;;;;;;12.57;9.48;;;9.00;84.10;;;;;;5011274;28;20437;-77
2021/12/04 07:25:18;;;;;;;11.43;9.10;;;9.00;84.10;;;;;;5011398;28;20519;-78
2021/12/04 07:27:43;;;;;;;11.35;8.60;;;9.00;84.10;;;;;;5028054;28;20436;-77
2021/12/04 07:30:09;;;;;;;10.90;8.73;;;9.00;84.10;;;;;;5027754;28;20042;-79
2021/12/04 07:32:37;;;;;;;10.95;8.80;;;9.00;84.10;;;;;;5027782;28;20065;-79
2021/12/04 07:35:03;;;;;;;10.57;8.80;;;9.00;84.10;;;;;;5010869;28;20026;-78
2021/12/04 07:37:29;;;;;;;10.82;8.52;;;9.00;84.10;;;;;;5010632;28;20809;-78
2021/12/04 07:39:55;;;;;;;11.75;8.85;;;9.00;84.20;;;;;;5010925;28;20033;-78
2021/12/04 07:42:20;;;;;;;10.57;8.30;;;9.00;84.20;;;;;;5027859;28;20037;-80
2021/12/04 07:44:46;;;;;;;10.52;8.43;;;9.00;84.20;;;;;;5012342;28;20034;-78
2021/12/04 07:47:12;;;;;;;10.10;8.10;;;9.00;84.30;;;;;;5012330;28;20032;-78
2021/12/04 07:49:38;;;;;;;10.43;8.52;;;9.00;84.20;;;;;;5012418;28;20584;-78
2021/12/04 07:52:08;;;;;;;10.40;8.57;;;9.00;84.30;;;;;;5012850;28;20533;-80
2021/12/04 07:54:34;;;;;;;10.48;8.27;;;9.00;84.20;;;;;;5014237;28;20034;-80
2021/12/04 07:57:00;;;;;;;10.60;7.88;;;9.00;84.30;;;;;;5012490;28;20030;-79
2021/12/04 07:59:26;;;;;;;11.00;8.48;;;9.00;84.30;;;;;;5012602;28;20040;-79
2021/12/04 08:01:52;;;;;;;9.27;7.95;;;9.00;83.90;;;;;;5012886;28;20026;-79
2021/12/04 08:04:19;;;;;;;13.23;8.43;;;9.00;84.00;;;;;;5029117;28;20032;-79
2021/12/04 08:06:44;;;;;;;11.23;8.35;;;9.00;84.20;;;;;;5028868;28;20052;-81
2021/12/04 08:09:10;;;;;;;10.70;8.20;;;9.00;84.10;;;;;;5013219;28;20513;-79
2021/12/04 08:11:36;;;;;;;12.02;8.40;;;9.00;83.70;;;;;;5028349;28;20088;-80
2021/12/04 08:14:01;;;;;;;13.00;7.53;;;9.00;83.60;;;;;;5029149;28;20057;-79
2021/12/04 08:16:27;;;;;;;9.18;7.03;;;9.00;83.60;;;;;;5013986;28;20025;-79
2021/12/04 08:18:54;;;;;;;11.23;8.13;;;9.10;83.60;;;;;;5011921;28;20018;-79
2021/12/04 08:21:21;;;;;;;12.07;7.88;;;9.10;83.40;;;;;;5012543;28;20493;-80
2021/12/04 08:23:46;;;;;;;12.18;8.20;;;9.10;83.70;;;;;;5012970;28;20044;-80
2021/12/04 08:26:13;;;;;;;11.20;7.53;;;9.10;83.30;;;;;;5013082;28;20026;-82
2021/12/04 08:28:38;;;;;;;14.40;7.60;;;9.20;83.20;;;;;;5021091;28;20034;-80
2021/12/04 08:31:04;;;;;;;13.23;8.00;;;9.20;83.10;;;;;;5013952;28;20110;-82
2021/12/04 08:33:30;;;;;;;14.10;8.00;;;9.10;82.90;;;;;;5013215;28;20052;-78
2021/12/04 08:35:55;;;;;;;12.30;7.85;;;9.70;83.40;;;;;;5013269;28;20017;-80
2021/12/04 08:38:21;;;;;;;14.27;8.27;;;9.20;83.00;;;;;;5012435;28;20022;-79
2021/12/04 08:40:48;;;;;;;12.52;7.78;;;9.20;83.20;;;;;;5012800;28;20034;-79
2021/12/04 08:43:14;;;;;;;11.23;8.00;;;9.20;83.20;;;;;;5011156;28;20129;-78
2021/12/04 08:45:41;;;;;;;13.13;7.63;;;9.20;83.10;;;;;;5011358;28;20037;-79
2021/12/04 08:48:08;;;;;;;13.93;7.63;;;9.20;83.20;;;;;;5010807;28;20036;-79
2021/12/04 08:50:35;;;;;;;14.85;7.95;;;9.20;83.10;;;;;;5010918;28;20113;-79
2021/12/04 08:53:02;;;;;;;13.30;7.43;;;9.20;83.20;;;;;;5012019;28;20521;-79
2021/12/04 08:55:30;;;;;;;11.68;7.47;;;9.20;83.30;;;;;;5011770;28;20032;-79
2021/12/04 08:57:56;;;;;;;12.93;7.53;;;9.20;83.20;;;;;;5011059;28;20474;-79
2021/12/04 09:00:30;;;;;;;10.70;7.30;;;9.20;83.10;;;;;;5010803;28;20029;-79
2021/12/04 09:02:56;;;;;;;10.45;6.90;;;9.20;83.30;;;;;;5011270;28;20493;-79
2021/12/04 09:05:23;;;;;;;11.55;7.80;;;9.20;83.20;;;;;;5009748;28;20147;-78
2021/12/04 09:07:50;;;;;;;13.60;7.05;;;9.20;83.20;;;;;;5011058;28;20021;-78
2021/12/04 09:10:17;;;;;;;14.43;7.55;;;9.20;83.40;;;;;;5008365;28;20034;-77
2021/12/04 09:12:44;;;;;;;10.60;7.13;;;9.20;83.30;;;;;;5008745;28;20040;-79
2021/12/04 09:15:13;;;;;;;13.40;6.93;;;9.20;83.20;;;;;;5009070;28;20484;-81
2021/12/04 09:17:39;;;;;;;10.70;7.72;;;9.20;83.30;;;;;;5008725;28;20489;-78
2021/12/04 09:20:07;;;;;;;9.43;7.18;;;9.30;83.80;;;;;;5008940;28;20037;-78
2021/12/04 09:22:35;;;;;;;10.50;7.75;;;9.20;83.70;;;;;;5009007;28;20029;-77
2021/12/04 09:25:07;;;;;;;10.52;8.02;;;9.20;83.70;;;;;;5009081;28;20037;-77
2021/12/04 09:36:00;;;;;;;9.55;7.75;;;9.10;84.60;;;;;;5009668;28;20048;-78
2021/12/04 10:14:06;;;;;;;86.93;14.77;;;9.10;84.80;;;;;;5009786;28;20588;-77
2021/12/04 10:17:08;;;;;;;82.25;13.65;;;9.10;84.90;;;;;;5007880;28;20517;-77
2021/12/04 10:19:48;;;;;;;65.10;13.73;;;9.10;84.80;;;;;;5009119;28;20113;-77
2021/12/04 10:22:22;;;;;;;69.30;12.35;;;9.00;84.60;;;;;;5008614;28;20080;-79
2021/12/04 10:33:37;;;;;;;37.90;9.02;;;9.00;84.00;;;;;;5009292;28;20512;-78
2021/12/04 10:36:03;;;;;;;40.58;8.85;;;9.00;83.90;;;;;;5008876;28;20066;-77
2021/12/04 10:38:37;;;;;;;36.75;8.77;;;9.00;83.90;;;;;;5008600;28;20057;-77
2021/12/04 10:41:03;;;;;;;32.25;9.02;;;9.00;83.80;;;;;;5007550;28;20105;-77
2021/12/04 10:43:31;;;;;;;24.77;8.40;;;9.00;83.60;;;;;;5009024;28;20529;-79
2021/12/04 10:46:10;;;;;;;22.45;8.65;;;9.00;83.60;;;;;;5009494;28;20452;-79
2021/12/04 10:48:43;;;;;;;25.17;8.00;;;9.00;83.20;;;;;;5009643;28;20018;-78
2021/12/04 10:51:30;;;;;;;20.25;7.97;;;9.00;83.10;;;;;;5008435;28;20034;-79
2021/12/04 10:53:57;;;;;;;22.13;7.88;;;9.00;83.30;;;;;;5012077;28;20018;-77
2021/12/04 11:02:24;;;;;;;56.28;11.10;;;9.00;83.60;;;;;;4989330;28;20028;-76
2021/12/04 11:04:59;;;;;;;46.13;10.95;;;9.00;83.70;;;;;;5012089;28;20058;-78
2021/12/04 11:34:54;;;;;;;35.35;12.88;;;9.00;85.00;;;;;;5012011;28;20077;-79
2021/12/04 11:40:01;;;;;;;26.25;9.35;;;9.00;84.50;;;;;;5012456;28;20053;-80
2021/12/04 11:45:20;;;;;;;23.33;8.50;;;9.00;84.40;;;;;;5013808;28;20034;-80
2021/12/04 11:47:51;;;;;;;25.27;8.50;;;9.00;84.40;;;;;;5012668;28;20034;-80
2021/12/04 11:50:37;;;;;;;21.80;8.48;;;9.00;85.00;;;;;;5012725;28;20030;-80
2021/12/04 11:53:16;;;;;;;15.00;7.20;;;9.00;84.20;;;;;;5013299;28;20116;-80
2021/12/04 11:55:44;;;;;;;16.65;7.72;;;8.90;83.60;;;;;;5013436;28;20029;-81
2021/12/04 11:58:26;;;;;;;12.77;7.45;;;8.90;83.60;;;;;;5012668;28;20025;-79
2021/12/04 12:00:57;;;;;;;15.75;7.22;;;8.90;83.90;;;;;;5011496;28;20022;-79
2021/12/04 12:03:27;;;;;;;18.48;7.57;;;8.90;84.00;;;;;;5010781;28;20030;-79
2021/12/04 12:06:05;;;;;;;20.00;7.68;;;9.00;84.30;;;;;;5013533;28;20069;-82
2021/12/04 12:08:34;;;;;;;22.17;8.10;;;9.00;84.60;;;;;;5012714;28;20057;-79
2021/12/04 12:11:20;;;;;;;14.82;7.22;;;9.00;84.60;;;;;;5011815;28;20026;-82
2021/12/04 12:13:51;;;;;;;14.30;7.20;;;9.00;84.80;;;;;;5010997;28;20554;-80
2021/12/04 12:16:28;;;;;;;16.52;7.10;;;9.00;84.70;;;;;;5010606;28;20111;-78
2021/12/04 12:19:00;;;;;;;21.73;7.50;;;9.00;84.80;;;;;;5010332;28;20026;-80
2021/12/04 12:21:52;;;;;;;17.08;6.75;;;9.10;85.10;;;;;;5010664;28;20541;-77
2021/12/04 12:33:04;;;;;;;16.88;6.60;;;9.10;84.90;;;;;;5010630;28;20037;-78
2021/12/04 12:38:35;;;;;;;11.68;6.68;;;9.00;83.50;;;;;;5016151;28;20037;-78
2021/12/04 12:41:07;;;;;;;15.18;7.07;;;9.20;83.60;;;;;;5028815;28;20037;-78
2021/12/04 12:43:50;;;;;;;13.05;6.72;;;9.10;84.70;;;;;;5028527;28;20061;-78
2021/12/04 12:46:16;;;;;;;14.98;6.35;;;9.10;84.20;;;;;;5030043;28;20025;-78
2021/12/04 12:48:47;;;;;;;9.85;6.10;;;9.20;84.20;;;;;;5027269;28;20509;-79
2021/12/04 12:51:14;;;;;;;11.77;5.72;;;9.20;84.20;;;;;;5030365;28;20087;-80
2021/12/04 12:53:44;;;;;;;12.75;5.95;;;9.20;84.50;;;;;;5025459;28;20053;-78
2021/12/04 12:56:13;;;;;;;12.50;5.80;;;9.30;85.00;;;;;;5027186;28;20026;-78
2021/12/04 12:58:54;;;;;;;15.80;5.70;;;9.30;85.00;;;;;;5029297;28;20032;-79
2021/12/04 13:13:45;;;;;;;19.83;5.93;;;9.50;86.40;;;;;;5029414;28;20044;-79
2021/12/04 13:16:21;;;;;;;18.83;6.40;;;9.50;86.80;;;;;;5022001;28;20511;-80
2021/12/04 13:18:55;;;;;;;19.30;6.88;;;9.50;86.60;;;;;;5025263;28;20028;-78
2021/12/04 13:21:22;;;;;;;14.25;6.03;;;9.60;87.30;;;;;;5025102;28;20030;-79
2021/12/04 13:23:50;;;;;;;15.30;6.30;;;9.60;87.00;;;;;;5008545;28;20607;-78
2021/12/04 13:26:15;;;;;;;15.65;6.38;;;9.60;87.00;;;;;;5008407;28;20037;-77
2021/12/04 13:28:45;;;;;;;11.65;6.60;;;9.70;87.20;;;;;;5008151;28;20030;-78
2021/12/04 13:31:11;;;;;;;12.38;6.60;;;9.70;86.90;;;;;;5008592;28;20030;-79
2021/12/04 13:33:39;;;;;;;13.10;6.45;;;9.80;87.40;;;;;;5008436;28;20045;-80
2021/12/04 13:36:26;;;;;;;15.52;6.00;;;9.80;87.20;;;;;;5009869;28;20064;-78
2021/12/04 13:39:09;;;;;;;14.77;6.47;;;10.00;86.90;;;;;;5064275;28;20091;-78
2021/12/04 13:41:41;;;;;;;12.70;6.07;;;10.10;86.60;;;;;;5050027;28;20025;-79
2021/12/04 13:44:08;;;;;;;13.18;6.25;;;10.20;85.60;;;;;;5048619;28;20035;-78
2021/12/04 13:46:42;;;;;;;14.38;5.93;;;10.30;85.10;;;;;;5052022;28;20029;-78
2021/12/04 13:49:09;;;;;;;13.35;6.50;;;10.40;84.60;;;;;;5052109;28;20503;-80
2021/12/04 13:51:35;;;;;;;19.67;6.55;;;10.40;83.90;;;;;;5054497;28;20500;-80
2021/12/04 13:54:02;;;;;;;18.77;7.57;;;10.30;82.30;;;;;;5055281;28;20024;-80
2021/12/04 13:56:28;;;;;;;18.10;7.00;;;10.30;83.10;;;;;;5053888;28;20021;-82
2021/12/04 13:58:59;;;;;;;15.48;6.07;;;10.30;82.50;;;;;;5052488;28;20020;-81
2021/12/04 14:01:26;;;;;;;17.33;6.38;;;10.30;81.90;;;;;;5052862;28;20028;-80
2021/12/04 14:04:01;;;;;;;17.10;6.03;;;10.40;81.70;;;;;;5052296;28;20396;-82
2021/12/04 14:06:27;;;;;;;15.55;6.07;;;10.40;81.50;;;;;;5052506;28;20091;-80
2021/12/04 14:08:59;;;;;;;13.43;5.63;;;10.40;81.40;;;;;;5052028;28;20029;-81
2021/12/04 14:11:33;;;;;;;10.57;5.75;;;10.40;81.50;;;;;;5051871;28;20025;-80
2021/12/04 14:14:12;;;;;;;13.32;5.78;;;10.40;81.50;;;;;;5052487;28;20039;-81
2021/12/04 14:16:38;;;;;;;10.48;5.47;;;10.40;81.40;;;;;;5053459;28;20048;-80
2021/12/04 14:19:12;;;;;;;12.27;5.95;;;10.40;81.70;;;;;;5051341;28;20056;-80
2021/12/04 14:21:38;;;;;;;11.13;5.75;;;10.40;81.50;;;;;;5051787;28;20025;-79
2021/12/04 14:24:04;;;;;;;13.45;6.28;;;10.40;81.50;;;;;;5052982;28;20063;-80
2021/12/04 14:26:29;;;;;;;9.27;5.60;;;10.30;81.70;;;;;;5050714;28;20025;-80
2021/12/04 14:28:55;;;;;;;9.95;5.57;;;10.20;82.00;;;;;;5051459;28;20025;-80
2021/12/04 14:31:22;;;;;;;10.10;5.72;;;10.10;82.40;;;;;;5051141;28;20037;-80
2021/12/04 14:33:47;;;;;;;9.85;5.80;;;10.00;82.80;;;;;;5050862;28;20123;-81
2021/12/04 14:36:22;;;;;;;10.20;5.57;;;10.00;82.90;;;;;;5051238;28;20057;-80
2021/12/04 14:38:48;;;;;;;8.75;5.60;;;10.00;83.10;;;;;;5052385;28;20468;-79
2021/12/04 14:41:15;;;;;;;9.57;5.13;;;9.90;83.10;;;;;;5051159;28;20356;-80
2021/12/04 14:43:41;;;;;;;9.45;6.00;;;9.90;83.00;;;;;;5052299;28;20102;-80
2021/12/04 14:46:13;;;;;;;8.75;5.28;;;9.90;83.10;;;;;;5051011;28;20390;-80
2021/12/04 14:48:40;;;;;;;;;;;9.90;83.10;;;;;;5053410;28;20025;-81
2021/12/04 14:51:16;;;;;;;11.50;5.68;;;9.90;83.10;;;;;;5055553;28;19905;-81
2021/12/04 14:53:57;;;;;;;10.02;5.70;;;9.90;83.30;;;;;;5054782;28;20466;-81
2021/12/04 14:56:25;;;;;;;10.37;5.53;;;9.90;83.20;;;;;;5054255;28;20030;-80
2021/12/04 14:58:51;;;;;;;6.85;4.80;;;9.80;83.20;;;;;;5053448;28;20017;-81
2021/12/04 15:01:20;;;;;;;10.52;5.40;;;9.80;83.10;;;;;;5053644;28;20021;-82
2021/12/04 15:03:58;;;;;;;7.53;5.05;;;9.80;83.00;;;;;;5053334;28;20435;-80
2021/12/04 15:06:26;;;;;;;9.50;5.20;;;9.80;82.80;;;;;;5054544;28;20384;-80
2021/12/04 15:08:57;;;;;;;17.42;5.55;;;9.80;82.80;;;;;;5052745;28;20029;-81
2021/12/04 15:11:34;;;;;;;14.50;5.30;;;9.80;82.70;;;;;;5052907;28;20028;-81
2021/12/04 15:14:08;;;;;;;17.98;5.70;;;9.90;83.00;;;;;;5052615;28;20330;-80
2021/12/04 15:16:46;;;;;;;19.92;5.82;;;9.90;82.60;;;;;;5054273;28;20021;-81
2021/12/04 15:19:38;;;;;;;16.45;5.43;;;9.90;82.40;;;;;;5051716;28;20036;-81
2021/12/04 15:22:04;;;;;;;11.88;5.20;;;9.90;81.80;;;;;;5053336;28;20025;-80
2021/12/04 15:24:34;;;;;;;13.68;4.80;;;9.90;81.60;;;;;;5053030;28;20059;-78
2021/12/04 15:27:23;;;;;;;10.88;5.07;;;9.90;81.60;;;;;;5053544;28;20067;-79
2021/12/04 15:29:51;;;;;;;7.68;4.50;;;9.90;81.60;;;;;;5051395;28;20021;-79
2021/12/04 15:32:20;;;;;;;8.48;4.72;;;9.90;81.50;;;;;;5051466;28;20048;-81
2021/12/04 15:34:53;;;;;;;52.67;8.18;;;9.90;81.10;;;;;;5050904;28;20052;-80
2021/12/04 15:37:38;;;;;;;345.73;26.80;;;9.90;83.00;;;;;;5053314;28;20017;-80
2021/12/04 15:40:07;;;;;;;361.48;29.60;;;10.00;89.20;;;;;;5055214;28;20484;-80
2021/12/04 15:42:55;;;;;;;221.73;19.23;;;10.10;85.40;;;;;;5055087;28;20029;-79
2021/12/04 15:45:30;;;;;;;105.55;13.25;;;10.00;84.00;;;;;;5055128;28;20029;-80
2021/12/04 15:51:27;;;;;;;66.95;9.25;;;9.80;83.30;;;;;;5055875;28;20032;-80
2021/12/04 15:53:52;;;;;;;47.30;8.45;;;9.80;83.50;;;;;;5055485;28;20550;-79
2021/12/04 15:56:43;;;;;;;36.42;6.60;;;9.70;83.60;;;;;;5053989;28;20292;-79
2021/12/04 15:59:25;;;;;;;27.00;6.05;;;9.60;84.00;;;;;;5053967;28;20036;-80
2021/12/04 16:01:53;;;;;;;28.85;6.80;;;9.60;84.40;;;;;;5056447;28;20033;-81
2021/12/04 16:04:21;;;;;;;23.90;6.28;;;9.50;84.70;;;;;;5054243;28;20021;-82
2021/12/04 16:06:46;;;;;;;21.60;6.32;;;9.50;84.70;;;;;;5028483;28;20516;-82